| time (UTC) | temp F | wind direction | speed MPH | gust MPH | rain 1hr in | rain 24hr in | rain mn in | humidity % | barometer mb |
| 20260903194914 | 77 | 242 | 1.0 | 3.0 | 0.00 | 0.02 | 0.02 | 81 | 1013.8 |
| 20260903194812 | 75 | 150 | 4.0 | 5.0 | 0.00 | 0.03 | 0.03 | 86 | 1012.4 |
| 20260903193458 | 76 | 231 | 2.0 | 6.0 | 0.00 | 0.02 | 0.02 | 81 | 1014.0 |
| 20260903193416 | 76 | 231 | 2.0 | 6.0 | 0.00 | 0.02 | 0.02 | 81 | 1014.0 |
| 20260903193314 | 74 | 134 | 2.0 | 3.0 | 0.00 | 0.03 | 0.03 | 88 | 1012.5 |
| 20260903191853 | 74 | 266 | 2.0 | 5.0 | 0.00 | 0.02 | 0.02 | 85 | 1014.1 |
| 20260903191832 | 73 | 141 | 3.0 | 4.0 | 0.00 | 0.03 | 0.03 | 88 | 1012.6 |
| 20260903190441 | 72 | 327 | 1.0 | 3.0 | 0.00 | 0.02 | 0.02 | 85 | 1014.4 |
| 20260903190332 | 74 | 144 | 1.0 | 2.0 | 0.00 | 0.03 | 0.03 | 87 | 1012.8 |
| 20260903184904 | 72 | 224 | 1.0 | 2.0 | 0.00 | 0.02 | 0.02 | 84 | 1014.4 |
| 20260903184844 | 73 | 144 | 2.0 | 2.0 | 0.00 | 0.03 | 0.03 | 89 | 1012.8 |
| 20260903183327 | 72 | 224 | 1.0 | 3.0 | 0.00 | 0.02 | 0.02 | 84 | 1014.5 |
| 20260903183320 | 72 | 98 | 0.0 | 2.0 | 0.00 | 0.03 | 0.03 | 89 | 1013.0 |
| 20260903181847 | 72 | 9 | 0.0 | 1.0 | 0.00 | 0.03 | 0.03 | 90 | 1013.0 |
| 20260903181832 | 71 | 322 | 3.0 | 5.0 | 0.00 | 0.02 | 0.02 | 84 | 1014.6 |
| 20260903180353 | 72 | 9 | 1.0 | 2.0 | 0.00 | 0.03 | 0.03 | 88 | 1013.0 |
| 20260903174917 | 72 | 65 | 1.0 | 3.0 | 0.00 | 0.03 | 0.03 | 89 | 1013.0 |
| 20260903174838 | 70 | 318 | 2.0 | 4.0 | 0.00 | 0.02 | 0.02 | 85 | 1014.5 |
| 20260903173412 | 70 | 330 | 1.0 | 4.0 | 0.00 | 0.02 | 0.02 | 85 | 1014.6 |
| 20260903173410 | 72 | 141 | 1.0 | 2.0 | 0.00 | 0.03 | 0.03 | 88 | 1013.1 |
| 20260903171930 | 69 | 317 | 2.0 | 3.0 | 0.00 | 0.02 | 0.02 | 85 | 1014.8 |
| 20260903171827 | 71 | 140 | 1.0 | 2.0 | 0.00 | 0.03 | 0.03 | 88 | 1013.4 |
| 20260903170332 | 69 | 318 | 1.0 | 3.0 | 0.00 | 0.02 | 0.02 | 85 | 1015.1 |
| 20260903170328 | 71 | 141 | 1.0 | 4.0 | 0.00 | 0.03 | 0.03 | 88 | 1013.4 |
| 20260903164849 | 71 | 130 | 2.0 | 3.0 | 0.00 | 0.03 | 0.03 | 89 | 1013.6 |
| 20260903164834 | 70 | 313 | 1.0 | 3.0 | 0.00 | 0.02 | 0.02 | 84 | 1015.0 |
| 20260903163417 | 70 | 123 | 2.0 | 3.0 | 0.00 | 0.03 | 0.03 | 91 | 1013.7 |
| 20260903163415 | 69 | 279 | 1.0 | 2.0 | 0.00 | 0.02 | 0.02 | 85 | 1015.2 |
| 20260903161857 | 68 | 115 | 0.0 | 2.0 | 0.00 | 0.02 | 0.02 | 86 | 1015.2 |
| 20260903161829 | 69 | 126 | 2.0 | 3.0 | 0.00 | 0.03 | 0.03 | 92 | 1013.7 |
| 20260903160413 | 69 | 130 | 2.0 | 3.0 | 0.00 | 0.03 | 0.03 | 92 | 1013.7 |
| 20260903160338 | 68 | 304 | 2.0 | 3.0 | 0.00 | 0.02 | 0.02 | 85 | 1015.5 |
| 20260903160331 | 69 | 130 | 2.0 | 3.0 | 0.00 | 0.03 | 0.03 | 92 | 1013.7 |
| 20260903154903 | 68 | 343 | 3.0 | 4.0 | 0.00 | 0.02 | 0.02 | 86 | 1015.3 |
| 20260903154826 | 68 | 116 | 2.0 | 4.0 | 0.00 | 0.03 | 0.03 | 93 | 1013.7 |
| 20260903153435 | 68 | 293 | 2.0 | 4.0 | 0.00 | 0.02 | 0.02 | 86 | 1015.3 |
| 20260903153405 | 67 | 117 | 2.0 | 3.0 | 0.00 | 0.03 | 0.03 | 95 | 1013.7 |
| 20260903153332 | 68 | 293 | 2.0 | 4.0 | 0.00 | 0.02 | 0.02 | 86 | 1015.3 |
| 20260903151855 | 66 | 201 | 1.0 | 3.0 | 0.00 | 0.02 | 0.02 | 87 | 1015.4 |
| 20260903151817 | 66 | 140 | 4.0 | 7.0 | 0.00 | 0.03 | 0.03 | 95 | 1014.2 |
| 20260903150410 | 66 | 245 | 0.0 | 2.0 | 0.00 | 0.02 | 0.02 | 88 | 1015.6 |
| 20260903150404 | 65 | 131 | 3.0 | 5.0 | 0.00 | 0.03 | 0.03 | 96 | 1014.2 |
| 20260903144829 | 65 | 111 | 0.0 | 0.0 | 0.00 | 0.02 | 0.02 | 88 | 1015.8 |
| 20260903144821 | 65 | 130 | 2.0 | 4.0 | 0.00 | 0.03 | 0.03 | 96 | 1014.3 |
| 20260903143425 | 64 | 128 | 2.0 | 5.0 | 0.00 | 0.03 | 0.03 | 96 | 1014.4 |
| 20260903143410 | 65 | 143 | 1.0 | 3.0 | 0.00 | 0.02 | 0.02 | 89 | 1015.8 |
| 20260903141830 | 64 | 112 | 0.0 | 2.0 | 0.00 | 0.02 | 0.02 | 89 | 1016.1 |
| 20260903140336 | 64 | 187 | 1.0 | 3.0 | 0.00 | 0.02 | 0.02 | 90 | 1015.9 |
| 20260903140314 | 64 | 153 | 1.0 | 2.0 | 0.00 | 0.03 | 0.03 | 97 | 1014.4 |
| 20260903134838 | 63 | 144 | 1.0 | 4.0 | 0.00 | 0.02 | 0.02 | 90 | 1015.9 |
| 20260903134817 | 63 | 132 | 3.0 | 8.0 | 0.00 | 0.03 | 0.03 | 97 | 1014.3 |
| 20260903133431 | 62 | 119 | 2.0 | 3.0 | 0.00 | 0.02 | 0.02 | 90 | 1016.1 |
| 20260903133418 | 63 | 123 | 2.0 | 4.0 | 0.00 | 0.03 | 0.03 | 97 | 1014.6 |
| 20260903131907 | 63 | 165 | 1.0 | 4.0 | 0.00 | 0.03 | 0.03 | 97 | 1014.6 |
| 20260903131826 | 62 | 151 | 1.0 | 2.0 | 0.00 | 0.02 | 0.02 | 90 | 1016.2 |
| 20260903130403 | 62 | 132 | 0.0 | 1.0 | 0.00 | 0.03 | 0.03 | 97 | 1014.5 |
| 20260903130355 | 62 | 107 | 0.0 | 1.0 | 0.00 | 0.02 | 0.02 | 90 | 1016.2 |
| 20260903124859 | 62 | 107 | 1.0 | 3.0 | 0.00 | 0.02 | 0.02 | 90 | 1016.3 |
| 20260903124824 | 63 | 157 | 3.0 | 8.0 | 0.00 | 0.03 | 0.03 | 97 | 1014.6 |
| 20260903123409 | 62 | 106 | 0.0 | 6.0 | 0.00 | 0.03 | 0.03 | 97 | 1014.8 |
| 20260903123343 | 61 | 160 | 1.0 | 3.0 | 0.00 | 0.02 | 0.02 | 90 | 1016.5 |
| 20260903123327 | 62 | 106 | 0.0 | 6.0 | 0.00 | 0.03 | 0.03 | 97 | 1014.8 |
| 20260903121914 | 61 | 143 | 0.0 | 3.0 | 0.00 | 0.02 | 0.02 | 90 | 1016.6 |
| 20260903121847 | 62 | 159 | 4.0 | 7.0 | 0.00 | 0.03 | 0.03 | 97 | 1015.1 |
| 20260903120338 | 61 | 108 | 0.0 | 3.0 | 0.00 | 0.02 | 0.02 | 90 | 1016.6 |
| 20260903120334 | 62 | 159 | 5.0 | 7.0 | 0.00 | 0.03 | 0.03 | 97 | 1015.1 |
| 20260903114836 | 62 | 155 | 7.0 | 9.0 | 0.00 | 0.03 | 0.03 | 97 | 1014.9 |
| 20260903114825 | 61 | 283 | 1.0 | 6.0 | 0.00 | 0.02 | 0.02 | 90 | 1016.8 |
| 20260903113358 | 62 | 143 | 4.0 | 9.0 | 0.00 | 0.03 | 0.03 | 97 | 1015.3 |
| 20260903113353 | 61 | 124 | 2.0 | 4.0 | 0.00 | 0.02 | 0.02 | 90 | 1016.8 |
| 20260903111923 | 61 | 108 | 1.0 | 2.0 | 0.00 | 0.02 | 0.02 | 90 | 1016.6 |
| 20260903111836 | 61 | 147 | 6.0 | 9.0 | 0.00 | 0.03 | 0.03 | 97 | 1015.3 |
| 20260903110359 | 62 | 155 | 7.0 | 9.0 | 0.00 | 0.03 | 0.03 | 97 | 1015.3 |
| 20260903110343 | 60 | 126 | 1.0 | 3.0 | 0.00 | 0.02 | 0.02 | 89 | 1016.9 |
| 20260903104919 | 61 | 153 | 6.0 | 8.0 | 0.00 | 0.03 | 0.03 | 97 | 1015.3 |
| 20260903104828 | 60 | 105 | 1.0 | 3.0 | 0.00 | 0.02 | 0.02 | 89 | 1016.8 |
| 20260903103341 | 61 | 171 | 6.0 | 8.0 | 0.00 | 0.03 | 0.03 | 97 | 1015.0 |
| 20260903103338 | 60 | 106 | 1.0 | 4.0 | 0.00 | 0.02 | 0.02 | 89 | 1016.6 |
| 20260903101846 | 61 | 151 | 7.0 | 8.0 | 0.00 | 0.03 | 0.03 | 97 | 1015.1 |
| 20260903101839 | 60 | 110 | 2.0 | 5.0 | 0.00 | 0.02 | 0.02 | 89 | 1016.5 |
| 20260903100352 | 62 | 119 | 5.0 | 8.0 | 0.00 | 0.03 | 0.03 | 97 | 1015.1 |
| 20260903100337 | 60 | 112 | 2.0 | 6.0 | 0.00 | 0.02 | 0.02 | 89 | 1016.7 |
| 20260903094932 | 60 | 198 | 1.0 | 7.0 | 0.00 | 0.02 | 0.02 | 88 | 1016.7 |
| 20260903094826 | 61 | 51 | 3.0 | 6.0 | 0.00 | 0.03 | 0.03 | 97 | 1015.1 |
| 20260903093409 | 61 | 360 | 1.0 | 2.0 | 0.01 | 0.03 | 0.03 | 96 | 1015.3 |
| 20260903093356 | 60 | 106 | 3.0 | 8.0 | 0.00 | 0.02 | 0.02 | 88 | 1017.0 |
| 20260903091918 | 61 | 107 | 1.0 | 3.0 | 0.01 | 0.03 | 0.03 | 97 | 1015.1 |
| 20260903091901 | 60 | 149 | 4.0 | 9.0 | 0.01 | 0.02 | 0.02 | 88 | 1016.9 |
| 20260903091835 | 61 | 107 | 1.0 | 3.0 | 0.01 | 0.03 | 0.03 | 97 | 1015.1 |
| 20260903090407 | 60 | 102 | 2.0 | 7.0 | 0.01 | 0.02 | 0.02 | 88 | 1016.8 |
| 20260903090358 | 60 | 306 | 0.0 | 2.0 | 0.01 | 0.03 | 0.03 | 96 | 1015.4 |
| 20260903084850 | 60 | 74 | 2.0 | 6.0 | 0.01 | 0.02 | 0.02 | 87 | 1017.1 |
| 20260903084836 | 60 | 5 | 1.0 | 2.0 | 0.01 | 0.03 | 0.03 | 96 | 1015.6 |
| 20260903083355 | 60 | 151 | 2.0 | 4.0 | 0.01 | 0.02 | 0.02 | 86 | 1017.4 |
| 20260903083314 | 61 | 93 | 0.0 | 2.0 | 0.00 | 0.02 | 0.02 | 95 | 1015.8 |
| 20260903081830 | 61 | 128 | 1.0 | 9.0 | 0.00 | 0.01 | 0.01 | 85 | 1017.4 |
| 20260903081815 | 61 | 146 | 1.0 | 3.0 | 0.00 | 0.02 | 0.02 | 95 | 1015.9 |
| 20260903080429 | 61 | 331 | 1.0 | 5.0 | 0.00 | 0.02 | 0.02 | 95 | 1015.9 |
| 20260903080357 | 61 | 109 | 1.0 | 4.0 | 0.00 | 0.01 | 0.01 | 84 | 1017.4 |
| 20260903074825 | 61 | 86 | 2.0 | 4.0 | 0.00 | 0.01 | 0.01 | 84 | 1017.3 |
| 20260903074819 | 62 | 115 | 2.0 | 5.0 | 0.00 | 0.02 | 0.02 | 95 | 1015.8 |
| 20260903073413 | 61 | 133 | 2.0 | 6.0 | 0.00 | 0.01 | 0.01 | 84 | 1017.4 |
| 20260903073345 | 62 | 159 | 3.0 | 7.0 | 0.00 | 0.02 | 0.02 | 95 | 1015.8 |
| 20260903071851 | 61 | 75 | 0.0 | 4.0 | 0.00 | 0.02 | 0.02 | 94 | 1016.0 |
| 20260903071835 | 61 | 93 | 1.0 | 4.0 | 0.00 | 0.01 | 0.01 | 84 | 1017.5 |
| 20260903070356 | 61 | 36 | 1.0 | 2.0 | 0.01 | 0.02 | 0.02 | 94 | 1016.2 |
| 20260903070327 | 61 | 120 | 1.0 | 6.0 | 0.00 | 0.01 | 0.01 | 84 | 1017.8 |
| 20260903064854 | 61 | 315 | 0.0 | 3.0 | 0.02 | 0.02 | 0.02 | 93 | 1016.1 |
| 20260903064827 | 61 | 98 | 2.0 | 3.0 | 0.01 | 0.01 | 0.01 | 84 | 1017.6 |
| 20260903063338 | 62 | 121 | 1.0 | 7.0 | 0.02 | 0.02 | 0.02 | 93 | 1016.0 |
| 20260903063333 | 61 | 157 | 1.0 | 3.0 | 0.01 | 0.01 | 0.01 | 83 | 1017.7 |
| 20260903061835 | 61 | 126 | 1.0 | 9.0 | 0.01 | 0.01 | 0.01 | 83 | 1017.7 |
| 20260903061826 | 63 | 11 | 1.0 | 7.0 | 0.02 | 0.02 | 0.02 | 92 | 1016.3 |
| 20260903060355 | 62 | 107 | 2.0 | 6.0 | 0.01 | 0.01 | 0.01 | 81 | 1018.2 |
| 20260903060353 | 63 | 115 | 1.0 | 7.0 | 0.01 | 0.01 | 0.01 | 90 | 1016.6 |
| 20260903054903 | 62 | 126 | 2.0 | 4.0 | 0.00 | 0.00 | 0.00 | 80 | 1018.6 |
| 20260903054817 | 64 | 146 | 6.0 | 9.0 | 0.00 | 0.00 | 0.00 | 88 | 1017.1 |
| 20260903053428 | 63 | 81 | 1.0 | 2.0 | 0.00 | 0.00 | 0.00 | 79 | 1018.9 |
| 20260903053317 | 64 | 117 | 3.0 | 9.0 | 0.00 | 0.00 | 0.00 | 88 | 1017.4 |
| 20260903051848 | 63 | 62 | 3.0 | 4.0 | 0.00 | 0.00 | 0.00 | 77 | 1019.0 |
| 20260903051833 | 65 | 149 | 1.0 | 7.0 | 0.00 | 0.00 | 0.00 | 87 | 1017.7 |
| 20260903050334 | 64 | 75 | 2.0 | 5.0 | 0.00 | 0.00 | 0.00 | 76 | 1019.0 |
| 20260903050313 | 65 | 136 | 4.0 | 8.0 | 0.00 | 0.00 | 0.00 | 87 | 1017.5 |
| 20260903044900 | 65 | 114 | 5.0 | 11.0 | 0.00 | 0.00 | 0.00 | 87 | 1017.4 |
| 20260903044837 | 64 | 124 | 3.0 | 5.0 | 0.00 | 0.00 | 0.00 | 74 | 1019.0 |
| 20260903043421 | 64 | 128 | 2.0 | 7.0 | 0.00 | 0.00 | 0.00 | 74 | 1019.0 |
| 20260903043322 | 65 | 107 | 4.0 | 10.0 | 0.00 | 0.00 | 0.00 | 85 | 1017.4 |
| 20260903041851 | 65 | 138 | 5.0 | 9.0 | 0.00 | 0.00 | 0.00 | 87 | 1017.8 |
| 20260903041839 | 65 | 86 | 3.0 | 9.0 | 0.00 | 0.00 | 0.00 | 74 | 1019.3 |
| 20260903040423 | 65 | 143 | 3.0 | 8.0 | 0.00 | 0.00 | 0.00 | 87 | 1017.9 |
| 20260903040351 | 65 | 113 | 5.0 | 8.0 | 0.00 | 0.00 | 0.00 | 74 | 1019.3 |
| 20260903040340 | 65 | 143 | 3.0 | 8.0 | 0.00 | 0.00 | 0.00 | 87 | 1017.9 |
| 20260903034941 | 65 | 118 | 3.0 | 8.0 | 0.00 | 0.00 | 0.00 | 75 | 1019.6 |
| 20260903034822 | 66 | 139 | 4.0 | 7.0 | 0.00 | 0.00 | 0.00 | 86 | 1018.0 |
| 20260903033407 | 66 | 144 | 6.0 | 9.0 | 0.00 | 0.00 | 0.00 | 84 | 1017.9 |
| 20260903033327 | 65 | 87 | 3.0 | 6.0 | 0.00 | 0.00 | 0.00 | 75 | 1019.3 |
| 20260903031851 | 65 | 30 | 3.0 | 6.0 | 0.00 | 0.00 | 0.00 | 74 | 1019.6 |
| 20260903031825 | 66 | 144 | 5.0 | 9.0 | 0.00 | 0.00 | 0.00 | 86 | 1018.1 |
| 20260903030419 | 65 | 143 | 2.0 | 7.0 | 0.00 | 0.00 | 0.00 | 74 | 1019.7 |
| 20260903030327 | 66 | 130 | 4.0 | 10.0 | 0.00 | 0.00 | 0.00 | 84 | 1018.3 |
| 20260903024914 | 65 | 109 | 2.0 | 8.0 | 0.00 | 0.00 | 0.00 | 74 | 1019.8 |
| 20260903024828 | 66 | 150 | 8.0 | 12.0 | 0.00 | 0.00 | 0.00 | 86 | 1018.2 |
| 20260903023356 | 65 | 185 | 3.0 | 6.0 | 0.00 | 0.00 | 0.00 | 75 | 1020.2 |
| 20260903023327 | 66 | 175 | 5.0 | 12.0 | 0.00 | 0.00 | 0.00 | 88 | 1018.6 |
| 20260903021844 | 66 | 112 | 3.0 | 6.0 | 0.00 | 0.00 | 0.00 | 77 | 1020.1 |
| 20260903021811 | 66 | 153 | 7.0 | 12.0 | 0.00 | 0.00 | 0.00 | 88 | 1018.7 |
| 20260903020345 | 66 | 93 | 3.0 | 5.0 | 0.00 | 0.00 | 0.00 | 77 | 1020.3 |
| 20260903020317 | 66 | 153 | 8.0 | 11.0 | 0.00 | 0.00 | 0.00 | 89 | 1018.9 |
| 20260903014830 | 66 | 108 | 3.0 | 7.0 | 0.00 | 0.00 | 0.00 | 78 | 1020.6 |
| 20260903014812 | 66 | 123 | 6.0 | 9.0 | 0.00 | 0.00 | 0.00 | 89 | 1019.2 |
| 20260903013426 | 66 | 124 | 3.0 | 6.0 | 0.00 | 0.00 | 0.00 | 78 | 1020.6 |
| 20260903013325 | 67 | 140 | 6.0 | 11.0 | 0.00 | 0.00 | 0.00 | 88 | 1019.2 |
| 20260903011847 | 66 | 157 | 2.0 | 8.0 | 0.00 | 0.00 | 0.00 | 80 | 1020.6 |
| 20260903011822 | 67 | 154 | 7.0 | 9.0 | 0.00 | 0.00 | 0.00 | 87 | 1019.3 |
| 20260903010355 | 66 | 193 | 2.0 | 7.0 | 0.00 | 0.00 | 0.00 | 81 | 1020.4 |
| 20260903010327 | 67 | 150 | 11.0 | 15.0 | 0.00 | 0.00 | 0.00 | 86 | 1018.9 |
| 20260903004836 | 66 | 214 | 1.0 | 2.0 | 0.00 | 0.00 | 0.00 | 82 | 1020.8 |
| 20260903004812 | 67 | 32 | 2.0 | 8.0 | 0.00 | 0.00 | 0.00 | 86 | 1019.4 |
| 20260903003329 | 66 | 49 | 1.0 | 3.0 | 0.00 | 0.00 | 0.00 | 82 | 1019.8 |
| 20260903003322 | 67 | 153 | 8.0 | 11.0 | 0.00 | 0.00 | 0.00 | 86 | 1018.5 |
| 20260903001943 | 66 | 189 | 1.0 | 4.0 | 0.00 | 0.00 | 0.00 | 83 | 1019.6 |
| 20260903001816 | 67 | 150 | 8.0 | 11.0 | 0.00 | 0.00 | 0.00 | 86 | 1018.2 |
| 20260903000402 | 67 | 155 | 9.0 | 11.0 | 0.00 | 0.00 | 0.00 | 86 | 1018.7 |
| 20260903000348 | 66 | 162 | 2.0 | 6.0 | 0.00 | 0.00 | 0.00 | 83 | 1019.9 |
| 20260902234914 | 66 | 122 | 2.0 | 4.0 | 0.00 | 0.00 | 0.00 | 84 | 1020.3 |
| 20260902234820 | 67 | 154 | 8.0 | 13.0 | 0.00 | 0.00 | 0.00 | 85 | 1018.9 |
| 20260902233406 | 66 | 99 | 2.0 | 5.0 | 0.00 | 0.00 | 0.00 | 84 | 1020.3 |
| 20260902233319 | 68 | 154 | 10.0 | 13.0 | 0.00 | 0.00 | 0.00 | 86 | 1018.9 |
| 20260902231937 | 67 | 100 | 1.0 | 3.0 | 0.00 | 0.00 | 0.00 | 83 | 1020.6 |
| 20260902231820 | 68 | 145 | 9.0 | 11.0 | 0.00 | 0.00 | 0.00 | 87 | 1019.3 |
| 20260902230345 | 68 | 69 | 1.0 | 5.0 | 0.00 | 0.00 | 0.00 | 90 | 1019.6 |
| 20260902230335 | 67 | 132 | 0.0 | 2.0 | 0.00 | 0.00 | 0.00 | 83 | 1021.1 |
| 20260902224906 | 67 | 62 | 1.0 | 2.0 | 0.00 | 0.00 | 0.00 | 83 | 1021.3 |
| 20260902224824 | 67 | 271 | 0.0 | 2.0 | 0.00 | 0.00 | 0.00 | 90 | 1020.1 |
| 20260902223453 | 67 | 121 | 1.0 | 2.0 | 0.00 | 0.00 | 0.00 | 82 | 1021.8 |
| 20260902223411 | 67 | 121 | 1.0 | 2.0 | 0.00 | 0.00 | 0.00 | 82 | 1021.8 |
| 20260902223331 | 68 | 271 | 1.0 | 2.0 | 0.00 | 0.00 | 0.00 | 90 | 1020.3 |
| 20260902221851 | 68 | 86 | 1.0 | 3.0 | 0.00 | 0.00 | 0.00 | 82 | 1021.5 |
| 20260902221835 | 68 | 261 | 0.0 | 2.0 | 0.00 | 0.00 | 0.00 | 89 | 1020.2 |
| 20260902220353 | 68 | 108 | 0.0 | 0.0 | 0.00 | 0.00 | 0.00 | 81 | 1021.8 |
| 20260902220319 | 69 | 123 | 1.0 | 2.0 | 0.00 | 0.00 | 0.00 | 89 | 1020.5 |
| 20260902214905 | 69 | 132 | 1.0 | 3.0 | 0.00 | 0.00 | 0.00 | 87 | 1020.2 |
| 20260902214859 | 69 | 108 | 0.0 | 3.0 | 0.00 | 0.00 | 0.00 | 81 | 1021.7 |
| 20260902213345 | 69 | 269 | 0.0 | 1.0 | 0.00 | 0.00 | 0.00 | 81 | 1021.7 |
| 20260902213327 | 70 | 67 | 1.0 | 7.0 | 0.00 | 0.00 | 0.00 | 86 | 1020.3 |
| 20260902211851 | 69 | 75 | 1.0 | 3.0 | 0.00 | 0.00 | 0.00 | 80 | 1021.5 |
| 20260902211829 | 69 | 156 | 2.0 | 6.0 | 0.00 | 0.00 | 0.00 | 86 | 1020.2 |
| 20260902210357 | 69 | 142 | 1.0 | 3.0 | 0.00 | 0.00 | 0.00 | 80 | 1021.6 |
| 20260902210334 | 69 | 115 | 3.0 | 5.0 | 0.00 | 0.00 | 0.00 | 84 | 1020.3 |
| 20260902204858 | 70 | 118 | 0.0 | 0.0 | 0.00 | 0.00 | 0.00 | 80 | 1021.6 |
| 20260902204812 | 70 | 136 | 4.0 | 8.0 | 0.00 | 0.00 | 0.00 | 84 | 1020.3 |
| 20260902203346 | 69 | 118 | 1.0 | 2.0 | 0.00 | 0.00 | 0.00 | 80 | 1021.4 |
| 20260902203317 | 70 | 150 | 7.0 | 10.0 | 0.00 | 0.00 | 0.00 | 84 | 1020.2 |
| 20260902201835 | 70 | 152 | 7.0 | 12.0 | 0.00 | 0.00 | 0.00 | 83 | 1020.0 |
| 20260902201827 | 69 | 228 | 0.0 | 2.0 | 0.00 | 0.00 | 0.00 | 80 | 1021.6 |
| 20260902200407 | 69 | 125 | 2.0 | 10.0 | 0.00 | 0.00 | 0.00 | 83 | 1020.9 |
| 20260902200402 | 69 | 96 | 1.0 | 3.0 | 0.00 | 0.00 | 0.00 | 80 | 1021.9 |